createdAt,value
2023-03-16T00:02:19.996Z,-1.15
2023-03-16T00:04:48.135Z,-1.16
2023-03-16T00:07:16.782Z,-1.15
2023-03-16T00:09:45.089Z,-1.14
2023-03-16T00:12:16.944Z,-1.19
2023-03-16T00:14:47.622Z,-1.24
2023-03-16T00:17:21.394Z,-1.29
2023-03-16T00:19:55.525Z,-1.32
2023-03-16T00:22:26.473Z,-1.32
2023-03-16T00:24:55.390Z,-1.32
2023-03-16T00:27:25.346Z,-1.33
2023-03-16T00:29:57.602Z,-1.43
2023-03-16T00:32:29.519Z,-1.36
2023-03-16T00:34:58.454Z,-1.36
2023-03-16T00:37:27.911Z,-1.35
2023-03-16T00:39:56.766Z,-1.36
2023-03-16T00:42:28.294Z,-1.38
2023-03-16T00:44:57.984Z,-1.39
2023-03-16T00:47:28.579Z,-1.46
2023-03-16T00:49:57.092Z,-1.44
2023-03-16T00:52:27.464Z,-1.45
2023-03-16T00:54:56.519Z,-1.50
2023-03-16T00:57:27.841Z,-1.52
2023-03-16T00:59:56.774Z,-1.51
2023-03-16T01:02:24.944Z,-1.48
2023-03-16T01:04:54.895Z,-1.56
2023-03-16T01:07:23.304Z,-1.45
2023-03-16T01:09:52.142Z,-1.46
2023-03-16T01:12:20.510Z,-1.47
2023-03-16T01:14:48.923Z,-1.48
2023-03-16T01:17:17.907Z,-1.51
2023-03-16T01:19:46.818Z,-1.50
2023-03-16T01:22:16.387Z,-1.48
2023-03-16T01:24:45.686Z,-1.48
2023-03-16T01:27:15.167Z,-1.48
2023-03-16T01:29:44.510Z,-1.47
2023-03-16T01:32:13.157Z,-1.46
2023-03-16T01:34:41.943Z,-1.46
2023-03-16T01:37:12.034Z,-1.46
2023-03-16T01:39:46.487Z,-1.49
2023-03-16T01:42:16.096Z,-1.52
2023-03-16T01:44:55.238Z,-1.51
2023-03-16T01:47:26.560Z,-1.52
2023-03-16T01:49:57.007Z,-1.51
2023-03-16T01:52:33.510Z,-1.49
2023-03-16T01:55:08.912Z,-1.48
2023-03-16T01:57:42.794Z,-1.53
2023-03-16T02:00:21.095Z,-1.53
2023-03-16T02:03:10.345Z,-1.54
2023-03-16T02:05:55.115Z,-1.55
2023-03-16T02:08:25.146Z,-1.56
2023-03-16T02:10:56.483Z,-1.56
2023-03-16T02:13:29.921Z,-1.55
2023-03-16T02:15:58.654Z,-1.53
2023-03-16T02:18:27.023Z,-1.51
2023-03-16T02:21:16.425Z,-1.52
2023-03-16T02:23:45.997Z,-1.56
2023-03-16T02:26:15.945Z,-1.56
2023-03-16T02:28:52.302Z,-1.55
2023-03-16T02:31:22.389Z,-1.55
2023-03-16T02:33:52.909Z,-1.58
2023-03-16T02:36:21.423Z,-1.57
2023-03-16T02:38:49.613Z,-1.63
2023-03-16T02:41:20.836Z,-1.57
2023-03-16T02:43:59.574Z,-1.57
2023-03-16T02:46:35.972Z,-1.57
2023-03-16T02:49:38.003Z,-1.56
2023-03-16T02:52:07.658Z,-1.54
2023-03-16T02:54:35.903Z,-1.53
2023-03-16T02:57:05.093Z,-1.53
2023-03-16T02:59:33.673Z,-1.53
2023-03-16T03:02:01.866Z,-1.55
2023-03-16T03:04:29.986Z,-1.54
2023-03-16T03:07:04.105Z,-1.56
2023-03-16T03:09:33.701Z,-1.56
2023-03-16T03:12:01.903Z,-1.57
2023-03-16T03:14:30.127Z,-1.53
2023-03-16T03:16:58.968Z,-1.51
2023-03-16T03:19:27.459Z,-1.50
2023-03-16T03:21:56.979Z,-1.50
2023-03-16T03:24:25.533Z,-1.51
2023-03-16T03:26:53.704Z,-1.61
2023-03-16T03:29:22.295Z,-1.50
2023-03-16T03:31:50.578Z,-1.50
2023-03-16T03:34:18.814Z,-1.53
2023-03-16T03:36:47.117Z,-1.54
2023-03-16T03:39:15.297Z,-1.56
2023-03-16T03:41:43.669Z,-1.57
2023-03-16T03:44:12.733Z,-1.62
2023-03-16T03:46:41.219Z,-1.60
2023-03-16T03:49:09.553Z,-1.61
2023-03-16T03:51:37.817Z,-1.62
2023-03-16T03:54:13.201Z,-1.63
2023-03-16T03:57:01.636Z,-1.61
2023-03-16T03:59:29.941Z,-1.62
2023-03-16T04:02:00.939Z,-1.62
2023-03-16T04:04:38.211Z,-1.64
2023-03-16T04:07:06.636Z,-1.65
2023-03-16T04:09:34.841Z,-1.65
2023-03-16T04:12:05.370Z,-1.66
2023-03-16T04:14:33.677Z,-1.66
2023-03-16T04:17:02.471Z,-1.67
2023-03-16T04:19:30.877Z,-1.68
2023-03-16T04:22:00.038Z,-1.69
2023-03-16T04:24:28.208Z,-1.68
2023-03-16T04:26:56.432Z,-1.66
2023-03-16T04:29:25.534Z,-1.67
2023-03-16T04:31:54.221Z,-1.66
2023-03-16T04:34:25.139Z,-1.66
2023-03-16T04:36:55.396Z,-1.65
2023-03-16T04:39:23.822Z,-1.66
2023-03-16T04:41:51.991Z,-1.69
2023-03-16T04:44:23.135Z,-1.70
2023-03-16T04:46:51.385Z,-1.70
2023-03-16T04:49:20.172Z,-1.70
2023-03-16T04:51:48.275Z,-1.70
2023-03-16T04:54:20.224Z,-1.70
2023-03-16T04:56:49.546Z,-1.69
2023-03-16T04:59:34.535Z,-1.66
2023-03-16T05:02:35.361Z,-1.67
2023-03-16T05:05:05.634Z,-1.68
2023-03-16T05:07:34.326Z,-1.66
2023-03-16T05:10:02.786Z,-1.65
2023-03-16T05:12:31.658Z,-1.64
2023-03-16T05:15:02.170Z,-1.63
2023-03-16T05:17:42.564Z,-1.60
2023-03-16T05:20:15.856Z,-1.57
2023-03-16T05:22:48.277Z,-1.56
2023-03-16T05:25:24.272Z,-1.53
2023-03-16T05:27:54.496Z,-1.49
2023-03-16T05:30:34.160Z,-1.44
2023-03-16T05:33:05.188Z,-1.40
2023-03-16T05:35:34.145Z,-1.36
2023-03-16T05:38:05.712Z,-1.33
2023-03-16T05:40:37.443Z,-1.28
2023-03-16T05:43:16.969Z,-1.21
2023-03-16T05:45:49.513Z,-1.15
2023-03-16T05:48:19.154Z,-1.07
2023-03-16T05:50:50.982Z,-0.98
2023-03-16T05:53:20.886Z,-0.92
2023-03-16T05:55:52.902Z,-0.87
2023-03-16T05:58:21.427Z,-0.83
2023-03-16T06:00:50.750Z,-0.88
2023-03-16T06:03:23.446Z,-0.83
2023-03-16T06:05:52.075Z,-0.70
2023-03-16T06:08:25.444Z,-0.64
2023-03-16T06:10:53.649Z,-0.59
2023-03-16T06:13:21.891Z,-0.55
2023-03-16T06:15:50.271Z,-0.50
2023-03-16T06:18:18.577Z,-0.44
2023-03-16T06:20:47.505Z,-0.43
2023-03-16T06:23:15.712Z,-0.32
2023-03-16T06:25:49.742Z,-0.26
2023-03-16T06:28:18.024Z,-0.22
2023-03-16T06:30:46.216Z,-0.25
2023-03-16T06:33:14.409Z,-0.05
2023-03-16T06:35:42.759Z,-0.02
2023-03-16T06:38:15.890Z,0.05
2023-03-16T06:40:58.403Z,0.15
2023-03-16T06:43:26.964Z,0.24
2023-03-16T06:45:55.479Z,0.34
2023-03-16T06:48:24.132Z,0.44
2023-03-16T06:50:52.484Z,0.53
2023-03-16T06:53:23.885Z,0.56
2023-03-16T06:55:53.321Z,0.61
2023-03-16T06:58:21.571Z,0.69
2023-03-16T07:00:49.741Z,0.72
2023-03-16T07:03:18.335Z,0.73
2023-03-16T07:05:50.572Z,0.76
2023-03-16T07:08:19.321Z,0.85
2023-03-16T07:10:47.564Z,0.93
2023-03-16T07:13:15.671Z,1.00
2023-03-16T07:15:44.858Z,1.03
2023-03-16T07:18:13.312Z,1.08
2023-03-16T07:20:42.342Z,1.17
2023-03-16T07:23:11.226Z,1.25
2023-03-16T07:25:40.540Z,1.23
2023-03-16T07:28:08.798Z,1.26
2023-03-16T07:30:45.940Z,1.37
2023-03-16T07:33:22.562Z,1.40
2023-03-16T07:35:52.210Z,1.45
2023-03-16T07:38:22.090Z,1.59
2023-03-16T07:40:52.352Z,1.64
2023-03-16T07:43:22.661Z,1.66
2023-03-16T07:45:52.737Z,1.66
2023-03-16T07:48:21.152Z,1.66
2023-03-16T07:50:54.286Z,1.63
2023-03-16T07:53:23.564Z,1.64
2023-03-16T07:55:55.297Z,1.70
2023-03-16T07:58:23.925Z,1.78
2023-03-16T08:00:52.538Z,1.86
2023-03-16T08:03:20.990Z,1.95
2023-03-16T08:05:49.186Z,2.05
2023-03-16T08:08:18.031Z,2.09
2023-03-16T08:10:48.960Z,2.15
2023-03-16T08:13:20.169Z,2.35
2023-03-16T08:15:50.536Z,2.55
2023-03-16T08:18:26.761Z,2.76
2023-03-16T08:20:55.659Z,2.91
2023-03-16T08:23:25.069Z,3.16
2023-03-16T08:25:58.061Z,3.40
2023-03-16T08:28:26.536Z,3.60
2023-03-16T08:30:56.276Z,3.58
2023-03-16T08:33:36.300Z,3.54
2023-03-16T08:36:09.661Z,3.48
2023-03-16T08:38:40.015Z,3.42
2023-03-16T08:41:09.778Z,3.44
2023-03-16T08:43:38.549Z,3.46
2023-03-16T08:46:06.950Z,3.44
2023-03-16T08:48:47.198Z,3.67
2023-03-16T08:51:17.671Z,3.76
2023-03-16T08:53:45.800Z,3.79
2023-03-16T08:56:14.866Z,3.79
2023-03-16T08:58:45.541Z,3.91
2023-03-16T09:01:18.099Z,3.96
2023-03-16T09:03:46.859Z,4.20
2023-03-16T09:06:17.245Z,4.37
2023-03-16T09:08:47.913Z,4.68
2023-03-16T09:11:19.010Z,4.78
2023-03-16T09:13:47.493Z,5.09
2023-03-16T09:16:16.399Z,5.43
2023-03-16T09:18:44.592Z,5.86
2023-03-16T09:21:15.771Z,6.06
2023-03-16T09:23:44.263Z,6.04
2023-03-16T09:26:13.341Z,5.93
2023-03-16T09:28:42.417Z,5.81
2023-03-16T09:31:17.352Z,5.57
2023-03-16T09:33:46.449Z,5.46
2023-03-16T09:36:15.519Z,5.49
2023-03-16T09:38:44.661Z,5.56
2023-03-16T09:42:01.272Z,5.65
2023-03-16T09:44:43.242Z,5.61
2023-03-16T09:47:12.907Z,5.84
2023-03-16T09:49:47.681Z,6.12
2023-03-16T09:52:34.440Z,6.77
2023-03-16T09:55:11.794Z,6.54
2023-03-16T09:57:43.556Z,6.42
2023-03-16T10:00:17.416Z,6.35
2023-03-16T10:02:48.620Z,6.31
2023-03-16T10:05:21.730Z,6.20
2023-03-16T10:08:12.971Z,6.03
2023-03-16T10:11:18.866Z,5.89
2023-03-16T10:14:27.526Z,5.74
2023-03-16T10:17:04.829Z,5.46
2023-03-16T10:19:54.018Z,5.22
2023-03-16T10:22:26.565Z,5.00
2023-03-16T10:24:57.693Z,4.77
2023-03-16T10:27:32.281Z,4.78
2023-03-16T10:30:02.755Z,4.65
2023-03-16T10:32:38.415Z,4.51
2023-03-16T10:35:54.703Z,4.36
2023-03-16T10:38:30.735Z,4.25
2023-03-16T10:41:00.084Z,4.17
2023-03-16T10:43:29.265Z,4.10
2023-03-16T10:46:02.587Z,4.07
2023-03-16T10:48:34.965Z,4.12
2023-03-16T10:51:08.673Z,4.21
2023-03-16T10:53:40.864Z,4.34
2023-03-16T10:56:21.123Z,4.44
2023-03-16T10:58:49.832Z,4.41
2023-03-16T11:01:20.699Z,4.40
2023-03-16T11:03:51.412Z,4.40
2023-03-16T11:06:33.529Z,4.33
2023-03-16T11:09:19.569Z,4.23
2023-03-16T11:11:49.609Z,4.14
2023-03-16T11:14:22.908Z,4.07
2023-03-16T11:16:54.428Z,4.18
2023-03-16T11:19:29.490Z,4.20
2023-03-16T11:22:33.107Z,4.25
2023-03-16T11:25:16.026Z,4.29
2023-03-16T11:27:53.298Z,4.29
2023-03-16T11:30:27.416Z,4.33
2023-03-16T11:32:55.924Z,4.51
2023-03-16T11:35:28.128Z,4.76
2023-03-16T11:38:21.765Z,4.89
2023-03-16T11:41:06.300Z,4.88
2023-03-16T11:43:54.069Z,4.88
2023-03-16T11:46:45.845Z,5.04
2023-03-16T11:49:44.728Z,5.15
2023-03-16T11:52:36.642Z,5.16
2023-03-16T11:55:04.634Z,5.24
2023-03-16T11:57:44.534Z,5.25
2023-03-16T12:00:34.084Z,5.22
2023-03-16T12:03:05.155Z,5.16
2023-03-16T12:05:56.458Z,5.14
2023-03-16T12:08:31.477Z,5.09
2023-03-16T12:11:05.564Z,5.03
2023-03-16T12:13:47.051Z,4.99
2023-03-16T12:16:27.465Z,4.88
2023-03-16T12:19:03.907Z,4.74
2023-03-16T12:21:37.878Z,4.65
2023-03-16T12:24:16.152Z,4.59
2023-03-16T12:26:45.394Z,4.58
2023-03-16T12:29:42.030Z,4.57
2023-03-16T12:32:18.865Z,4.58
2023-03-16T12:35:29.184Z,4.69
2023-03-16T12:38:07.923Z,4.99
2023-03-16T12:40:55.130Z,5.69
2023-03-16T12:43:47.813Z,6.73
2023-03-16T12:46:22.378Z,7.50
2023-03-16T12:48:55.844Z,7.66
2023-03-16T12:51:33.779Z,8.13
2023-03-16T12:54:02.588Z,8.54
2023-03-16T12:56:45.396Z,8.23
2023-03-16T12:59:24.789Z,7.85
2023-03-16T13:01:57.950Z,7.69
2023-03-16T13:04:39.300Z,7.94
2023-03-16T13:07:12.098Z,9.09
2023-03-16T13:09:55.088Z,9.93
2023-03-16T13:12:26.495Z,11.02
2023-03-16T13:14:55.929Z,11.62
2023-03-16T13:17:36.210Z,10.93
2023-03-16T13:20:30.728Z,10.64
2023-03-16T13:23:24.705Z,11.33
2023-03-16T13:26:01.739Z,12.14
2023-03-16T13:28:33.376Z,12.13
2023-03-16T13:31:02.896Z,11.56
2023-03-16T13:33:36.764Z,10.86
2023-03-16T13:36:06.397Z,10.13
2023-03-16T13:38:35.176Z,9.60
2023-03-16T13:41:09.520Z,9.16
2023-03-16T13:43:44.142Z,8.59
2023-03-16T13:46:17.970Z,8.02
2023-03-16T13:48:50.501Z,7.55
2023-03-16T13:51:20.987Z,7.24
2023-03-16T13:53:50.404Z,6.96
2023-03-16T13:56:23.922Z,6.65
2023-03-16T13:58:52.532Z,6.36
2023-03-16T14:01:32.370Z,6.05
2023-03-16T14:04:10.057Z,5.87
2023-03-16T14:06:38.705Z,5.74
2023-03-16T14:09:14.312Z,5.59
2023-03-16T14:11:44.741Z,5.31
2023-03-16T14:14:18.371Z,5.19
2023-03-16T14:16:46.498Z,5.14
2023-03-16T14:19:20.423Z,5.14
2023-03-16T14:21:49.794Z,5.40
2023-03-16T14:24:33.764Z,6.31
2023-03-16T14:27:17.264Z,7.00
2023-03-16T14:29:50.897Z,6.82
2023-03-16T14:32:26.817Z,6.54
2023-03-16T14:35:05.287Z,6.20
2023-03-16T14:37:37.403Z,6.04
2023-03-16T14:40:09.020Z,5.81
2023-03-16T14:42:39.542Z,5.69
2023-03-16T14:45:14.050Z,5.58
2023-03-16T14:47:44.629Z,5.39
2023-03-16T14:50:18.908Z,5.12
2023-03-16T14:52:48.243Z,4.81
2023-03-16T14:55:19.436Z,4.80
2023-03-16T14:57:47.520Z,4.75
2023-03-16T15:00:17.470Z,4.66
2023-03-16T15:02:55.019Z,4.55
2023-03-16T15:05:46.102Z,4.48
2023-03-16T15:08:27.478Z,4.39
2023-03-16T15:11:00.919Z,4.30
2023-03-16T15:13:42.500Z,4.29
2023-03-16T15:16:12.637Z,4.09
2023-03-16T15:18:42.034Z,4.12
2023-03-16T15:21:20.895Z,4.07
2023-03-16T15:23:49.961Z,4.04
2023-03-16T15:26:25.040Z,3.96
2023-03-16T15:28:55.144Z,3.86
2023-03-16T15:31:23.568Z,3.84
2023-03-16T15:33:51.972Z,3.79
2023-03-16T15:36:22.566Z,3.74
2023-03-16T15:38:53.434Z,3.67
2023-03-16T15:41:22.975Z,3.60
2023-03-16T15:43:52.864Z,3.51
2023-03-16T15:46:21.397Z,3.36
2023-03-16T15:48:49.595Z,3.28
2023-03-16T15:51:23.587Z,3.16
2023-03-16T15:53:55.671Z,3.04
2023-03-16T15:56:30.054Z,2.96
2023-03-16T15:59:00.979Z,2.87
2023-03-16T16:01:32.147Z,2.79
2023-03-16T16:04:00.471Z,2.68
2023-03-16T16:06:30.456Z,2.63
2023-03-16T16:08:58.468Z,2.61
2023-03-16T16:11:28.258Z,2.39
2023-03-16T16:13:58.024Z,2.54
2023-03-16T16:16:30.465Z,2.56
2023-03-16T16:18:58.936Z,2.57
2023-03-16T16:21:32.717Z,2.56
2023-03-16T16:24:03.024Z,2.55
2023-03-16T16:26:50.540Z,2.57
2023-03-16T16:29:33.779Z,2.56
2023-03-16T16:32:02.047Z,2.55
2023-03-16T16:34:30.404Z,2.49
2023-03-16T16:36:58.362Z,2.50
2023-03-16T16:39:26.774Z,2.51
2023-03-16T16:41:56.614Z,2.51
2023-03-16T16:44:28.920Z,2.54
2023-03-16T16:46:57.635Z,2.48
2023-03-16T16:49:28.531Z,2.58
2023-03-16T16:51:57.423Z,2.60
2023-03-16T16:54:29.118Z,2.62
2023-03-16T16:56:59.827Z,2.57
2023-03-16T16:59:37.117Z,2.59
2023-03-16T17:02:23.735Z,2.53
2023-03-16T17:04:51.997Z,2.48
2023-03-16T17:07:20.090Z,2.37
2023-03-16T17:09:48.141Z,2.46
2023-03-16T17:12:21.475Z,2.46
2023-03-16T17:14:50.126Z,2.43
2023-03-16T17:17:21.261Z,2.44
2023-03-16T17:19:49.565Z,2.43
2023-03-16T17:22:26.176Z,2.46
2023-03-16T17:24:55.313Z,2.47
2023-03-16T17:27:27.209Z,2.35
2023-03-16T17:29:56.890Z,2.42
2023-03-16T17:32:25.636Z,2.42
2023-03-16T17:34:53.751Z,2.43
2023-03-16T17:37:22.562Z,2.42
2023-03-16T17:39:52.050Z,2.41
2023-03-16T17:42:22.679Z,2.38
2023-03-16T17:44:52.694Z,2.34
2023-03-16T17:47:26.458Z,2.29
2023-03-16T17:49:55.064Z,2.27
2023-03-16T17:52:25.796Z,2.21
2023-03-16T17:54:54.301Z,2.23
2023-03-16T17:57:32.721Z,2.24
2023-03-16T18:00:02.658Z,2.24
2023-03-16T18:03:01.487Z,2.25
2023-03-16T18:05:32.305Z,2.15
2023-03-16T18:08:20.605Z,2.20
2023-03-16T18:10:52.759Z,2.20
2023-03-16T18:13:24.314Z,2.18
2023-03-16T18:15:53.916Z,1.96
2023-03-16T18:18:25.004Z,2.12
2023-03-16T18:20:55.028Z,2.08
2023-03-16T18:23:29.210Z,2.06
2023-03-16T18:26:03.550Z,2.01
2023-03-16T18:28:33.539Z,1.99
2023-03-16T18:31:03.805Z,1.96
2023-03-16T18:33:35.434Z,1.93
2023-03-16T18:36:19.962Z,1.91
2023-03-16T18:38:50.581Z,1.90
2023-03-16T18:41:25.253Z,1.88
2023-03-16T18:43:56.633Z,1.86
2023-03-16T18:46:26.534Z,1.81
2023-03-16T18:49:00.432Z,1.80
2023-03-16T18:51:29.726Z,1.78
2023-03-16T18:53:57.797Z,1.75
2023-03-16T18:56:27.826Z,1.73
2023-03-16T18:58:57.399Z,1.71
2023-03-16T19:01:30.252Z,1.70
2023-03-16T19:04:00.748Z,1.69
2023-03-16T19:06:31.953Z,1.69
2023-03-16T19:09:29.010Z,1.68
2023-03-16T19:11:57.491Z,1.64
2023-03-16T19:14:28.453Z,1.58
2023-03-16T19:16:56.831Z,1.54
2023-03-16T19:19:24.968Z,1.51
2023-03-16T19:21:56.517Z,1.48
2023-03-16T19:24:27.682Z,1.47
2023-03-16T19:26:56.802Z,1.45
2023-03-16T19:29:34.165Z,1.41
2023-03-16T19:32:02.319Z,1.34
2023-03-16T19:34:30.380Z,1.21
2023-03-16T19:36:58.464Z,1.11
2023-03-16T19:40:00.347Z,1.06
2023-03-16T19:46:01.624Z,0.83
2023-03-16T19:49:05.884Z,0.91
2023-03-16T19:52:16.745Z,0.85
2023-03-16T19:55:03.926Z,0.78
2023-03-16T19:57:36.930Z,0.70
2023-03-16T20:00:06.574Z,0.64
2023-03-16T20:02:40.915Z,0.59
2023-03-16T20:05:16.199Z,0.50
2023-03-16T20:07:44.500Z,0.42
2023-03-16T20:10:21.610Z,0.36
2023-03-16T20:12:59.252Z,0.30
2023-03-16T20:15:33.296Z,0.29
2023-03-16T20:18:02.328Z,0.23
2023-03-16T20:20:34.400Z,0.10
2023-03-16T20:23:02.946Z,0.17
2023-03-16T20:25:33.326Z,0.15
2023-03-16T20:28:03.649Z,0.03
2023-03-16T20:30:32.124Z,0.14
2023-03-16T20:33:00.220Z,0.08
2023-03-16T20:35:31.122Z,-0.02
2023-03-16T20:37:59.439Z,-0.05
2023-03-16T20:40:28.350Z,-0.04
2023-03-16T20:42:56.497Z,-0.07
2023-03-16T20:45:27.953Z,-0.10
2023-03-16T20:47:56.795Z,-0.12
2023-03-16T20:50:30.770Z,-0.20
2023-03-16T20:52:58.864Z,-0.31
2023-03-16T20:55:29.285Z,-0.38
2023-03-16T20:57:58.628Z,-0.43
2023-03-16T21:00:30.820Z,-0.46
2023-03-16T21:02:59.843Z,-0.56
2023-03-16T21:05:29.761Z,-0.49
2023-03-16T21:07:58.083Z,-0.52
2023-03-16T21:10:28.225Z,-0.56
2023-03-16T21:12:57.463Z,-0.59
2023-03-16T21:15:29.410Z,-0.63
2023-03-16T21:18:03.486Z,-0.69
2023-03-16T21:20:33.017Z,-0.75
2023-03-16T21:23:01.493Z,-0.90
2023-03-16T21:25:32.775Z,-0.87
2023-03-16T21:28:03.812Z,-0.93
2023-03-16T21:30:37.431Z,-0.94
2023-03-16T21:33:18.365Z,-1.03
2023-03-16T21:35:46.596Z,-0.98
2023-03-16T21:38:20.023Z,-1.02
2023-03-16T21:40:48.425Z,-1.07
2023-03-16T21:43:16.565Z,-1.13
2023-03-16T21:45:46.641Z,-1.18
2023-03-16T21:48:37.949Z,-1.22
2023-03-16T21:51:13.696Z,-1.26
2023-03-16T21:53:42.664Z,-1.33
2023-03-16T21:56:19.897Z,-1.30
2023-03-16T21:58:48.021Z,-1.30
2023-03-16T22:01:24.945Z,-1.29
2023-03-16T22:03:57.530Z,-1.30
2023-03-16T22:06:28.106Z,-1.35
2023-03-16T22:08:57.949Z,-1.40
2023-03-16T22:11:28.871Z,-1.44
2023-03-16T22:13:58.964Z,-1.49
2023-03-16T22:16:31.520Z,-1.53
2023-03-16T22:18:59.561Z,-1.54
2023-03-16T22:21:39.770Z,-1.55
2023-03-16T22:24:15.856Z,-1.59
2023-03-16T22:26:44.515Z,-1.61
2023-03-16T22:29:26.375Z,-1.61
2023-03-16T22:32:08.634Z,-1.61
2023-03-16T22:34:44.319Z,-1.59
2023-03-16T22:37:17.448Z,-1.74
2023-03-16T22:39:45.537Z,-1.69
2023-03-16T22:42:19.372Z,-1.71
2023-03-16T22:44:47.545Z,-1.71
2023-03-16T22:47:27.930Z,-1.72
2023-03-16T22:49:56.055Z,-1.75
2023-03-16T22:52:31.006Z,-1.75
2023-03-16T22:55:01.430Z,-1.72
2023-03-16T22:57:30.408Z,-1.73
2023-03-16T23:00:00.804Z,-1.75
2023-03-16T23:02:29.034Z,-1.77
2023-03-16T23:04:57.609Z,-1.76
2023-03-16T23:07:25.612Z,-1.74
2023-03-16T23:09:53.672Z,-1.73
2023-03-16T23:12:22.288Z,-1.70
2023-03-16T23:14:50.367Z,-1.70
2023-03-16T23:17:22.413Z,-1.74
2023-03-16T23:19:50.555Z,-1.78
2023-03-16T23:22:18.531Z,-1.76
2023-03-16T23:24:47.446Z,-1.74
2023-03-16T23:27:22.319Z,-1.77
2023-03-16T23:29:50.379Z,-1.90
2023-03-16T23:32:18.405Z,-1.82
2023-03-16T23:34:47.014Z,-1.81
2023-03-16T23:37:14.992Z,-1.85
2023-03-16T23:39:43.783Z,-1.92
2023-03-16T23:42:12.766Z,-1.97
2023-03-16T23:44:40.962Z,-2.01
2023-03-16T23:47:11.053Z,-2.02
2023-03-16T23:49:41.828Z,-2.01
2023-03-16T23:52:12.035Z,-2.03
2023-03-16T23:54:40.021Z,-1.99
2023-03-16T23:57:08.938Z,-1.98
2023-03-16T23:59:36.918Z,-2.08
